Historique des mesures à Cassis (13260), France
Quotidien Résumé Mai 5, 2018 Unités:  Métrique    US   Métrique/US
« Précédent (Jour)
Suivant (Jour) »
Quotidien Hebdomadaire Mensuel Annuel Période au choix
  Maximum: Minimum: Moyenne:
Température: TemperatureC °C 16.4 °C 18.4 °C
Point de rosée: DewpointC °C 12.2 °C 13.3 °C
Humidité: Humidity % 60 % 69 %
Vitesse du vent: 0 km/h 0 km/h 3.7 km/h
Rafales: 0 km/h - -
Vent:- - SE
Pression: PressurehPa hPa 1008.0 hPa -
Précipitations: 3.6 mm    
Historical Graphs
 
 
Mesures pour : Mai 5, 2018
Heure Temperature Point de rosée Pression Vent Vitesse du vent Rafales Humidité Pluie (par heure) Conditions
TemperatureC °C DewpointC °C PressurehPa hPa Calm     Humidity % HourlyPrecipMM mm SoftwareType W/m2
00:11 16.4 °C 13.2 °C 1008.0 hPa NNE 6.4 km/h 6.4 km/h 81 % 0.0 mm open2300-1.11 W/m2
01:11 16.6 °C 12.9 °C 1008.4 hPa North 4.7 km/h 4.7 km/h 79 % 0.0 mm open2300-1.11 W/m2
02:12 16.7 °C 13.1 °C 1008.4 hPa North 5.1 km/h 6.4 km/h 79 % 0.0 mm open2300-1.11 W/m2
03:11 16.7 °C 12.6 °C 1008.4 hPa NNW 4.2 km/h 4.2 km/h 77 % 0.0 mm open2300-1.11 W/m2
04:11 16.5 °C 12.4 °C 1008.7 hPa Calm   2.9 km/h 77 % 0.0 mm open2300-1.11 W/m2
05:11 16.8 °C 12.3 °C 1008.7 hPa NW 6.9 km/h 6.9 km/h 75 % 0.0 mm open2300-1.11 W/m2
06:10 16.8 °C 12.3 °C 1009.0 hPa Calm   4.7 km/h 75 % 0.0 mm open2300-1.11 W/m2
07:10 16.4 °C 12.2 °C 1009.7 hPa Calm   3.4 km/h 76 % 0.0 mm open2300-1.11 W/m2
08:10 16.9 °C 12.8 °C 1010.0 hPa Calm     77 % 0.0 mm open2300-1.11 W/m2
09:11 18.4 °C 13.7 °C 1010.7 hPa Calm   5.1 km/h 74 % 0.0 mm open2300-1.11 W/m2
10:10 19.5 °C 14.7 °C 1011.1 hPa Calm     74 % 0.0 mm open2300-1.11 W/m2
11:10 21.1 °C 15.6 °C 1011.1 hPa SE 6.4 km/h 6.9 km/h 71 % 0.0 mm open2300-1.11 W/m2
12:10 22.5 °C 16.1 °C 1011.4 hPa SE 10.3 km/h 10.3 km/h 67 % 0.0 mm open2300-1.11 W/m2
13:10 23.6 °C 15.9 °C 1011.1 hPa SE 3.4 km/h 8.9 km/h 62 % 0.0 mm open2300-1.11 W/m2
14:10 22.1 °C 14.4 °C 1011.1 hPa West 8.9 km/h 12.2 km/h 62 % 0.0 mm open2300-1.11 W/m2
15:10 23.3 °C 15.1 °C 1011.4 hPa SE 5.1 km/h 9.3 km/h 60 % 0.0 mm open2300-1.11 W/m2
16:12 22.5 °C 14.8 °C 1011.7 hPa Calm   2.3 km/h 62 % 0.0 mm open2300-1.11 W/m2
17:12 21.6 °C 14.9 °C 1011.7 hPa WNW 5.6 km/h 5.6 km/h 66 % 3.0 mm open2300-1.11 W/m2
18:12 20.3 °C 14.9 °C 1012.4 hPa Calm     71 % 0.5 mm open2300-1.11 W/m2
19:11 20.2 °C 15.0 °C 1012.1 hPa NNW 6.4 km/h 10.3 km/h 72 % 0.0 mm open2300-1.11 W/m2
20:11 19.7 °C 13.9 °C 1011.7 hPa North 4.2 km/h 4.2 km/h 69 % 0.0 mm open2300-1.11 W/m2
21:11 18.5 °C 13.3 °C 1012.4 hPa North 1.8 km/h 7.6 km/h 72 % 0.0 mm open2300-1.11 W/m2
22:11 18.1 °C 13.2 °C 1012.4 hPa North 5.6 km/h 16.9 km/h 73 % 0.0 mm open2300-1.11 W/m2
23:11 18.4 °C 13.7 °C 1012.8 hPa North 8.9 km/h 8.9 km/h 74 % 0.0 mm open2300-1.11 W/m2
Observations météo à CASSIS
WU-History script by Weather Underground - 1 mb